createdAt,value
2019-04-16T00:01:14.008Z,20.95
2019-04-16T00:03:47.772Z,20.75
2019-04-16T00:06:42.734Z,21.35
2019-04-16T00:09:30.198Z,21.95
2019-04-16T00:12:22.178Z,20.70
2019-04-16T00:14:55.427Z,21.97
2019-04-16T00:17:29.036Z,22.22
2019-04-16T00:20:05.672Z,21.57
2019-04-16T00:22:45.649Z,22.93
2019-04-16T00:25:18.942Z,22.10
2019-04-16T00:27:52.752Z,21.55
2019-04-16T00:30:25.531Z,22.42
2019-04-16T00:32:59.385Z,23.47
2019-04-16T00:35:33.141Z,26.02
2019-04-16T00:38:06.367Z,24.02
2019-04-16T00:40:39.676Z,22.62
2019-04-16T00:43:13.067Z,19.85
2019-04-16T00:45:46.419Z,20.75
2019-04-16T00:48:20.300Z,19.45
2019-04-16T00:50:54.139Z,20.65
2019-04-16T00:53:28.883Z,20.70
2019-04-16T00:56:02.225Z,19.50
2019-04-16T00:58:35.606Z,19.87
2019-04-16T01:01:09.370Z,20.57
2019-04-16T01:03:42.578Z,20.52
2019-04-16T01:06:16.541Z,19.25
2019-04-16T01:08:54.885Z,18.70
2019-04-16T01:11:25.323Z,19.98
2019-04-16T01:13:58.669Z,19.25
2019-04-16T01:16:33.010Z,18.20
2019-04-16T01:19:09.706Z,19.62
2019-04-16T01:21:44.629Z,18.05
2019-04-16T01:24:17.577Z,18.40
2019-04-16T01:26:52.107Z,19.45
2019-04-16T01:29:25.990Z,19.75
2019-04-16T01:32:12.133Z,19.85
2019-04-16T01:35:18.639Z,19.98
2019-04-16T01:38:06.795Z,19.35
2019-04-16T01:40:50.157Z,20.40
2019-04-16T01:43:25.868Z,21.87
2019-04-16T01:46:01.468Z,21.40
2019-04-16T01:48:38.688Z,22.22
2019-04-16T01:51:12.657Z,22.77
2019-04-16T01:53:45.168Z,23.20
2019-04-16T01:56:18.604Z,22.73
2019-04-16T01:58:52.817Z,20.12
2019-04-16T02:01:26.694Z,20.97
2019-04-16T02:04:00.974Z,21.48
2019-04-16T02:06:34.842Z,21.70
2019-04-16T02:09:21.931Z,22.27
2019-04-16T02:11:43.498Z,20.75
2019-04-16T02:14:17.971Z,20.43
2019-04-16T02:16:55.693Z,19.37
2019-04-16T02:19:27.428Z,19.50
2019-04-16T02:22:00.793Z,21.35
2019-04-16T02:24:34.122Z,19.05
2019-04-16T02:27:08.040Z,18.65
2019-04-16T02:29:41.729Z,19.52
2019-04-16T02:32:15.058Z,20.32
2019-04-16T02:34:48.833Z,20.82
2019-04-16T02:37:21.734Z,20.72
2019-04-16T02:39:55.429Z,20.97
2019-04-16T02:42:31.945Z,20.43
2019-04-16T02:45:03.882Z,18.75
2019-04-16T02:47:41.986Z,20.10
2019-04-16T02:50:17.910Z,20.05
2019-04-16T02:53:09.987Z,20.27
2019-04-16T02:56:00.662Z,21.33
2019-04-16T02:58:38.819Z,18.52
2019-04-16T03:01:33.693Z,20.48
2019-04-16T03:04:11.083Z,20.43
2019-04-16T03:06:44.890Z,21.20
2019-04-16T03:09:18.158Z,20.27
2019-04-16T03:11:52.378Z,22.37
2019-04-16T03:14:29.717Z,21.87
2019-04-16T03:17:28.998Z,23.42
2019-04-16T03:20:04.622Z,22.58
2019-04-16T03:22:38.494Z,23.55
2019-04-16T03:25:14.100Z,23.90
2019-04-16T03:27:47.434Z,22.73
2019-04-16T03:30:21.272Z,22.00
2019-04-16T03:32:54.678Z,22.82
2019-04-16T03:35:28.918Z,23.18
2019-04-16T03:38:04.973Z,22.67
2019-04-16T03:40:38.177Z,23.12
2019-04-16T03:43:11.854Z,23.73
2019-04-16T03:45:46.268Z,25.17
2019-04-16T03:48:20.655Z,25.45
2019-04-16T03:50:54.899Z,23.87
2019-04-16T03:53:28.226Z,34.55
2019-04-16T03:56:01.487Z,40.35
2019-04-16T03:58:35.563Z,38.45
2019-04-16T04:01:09.749Z,39.35
2019-04-16T04:03:43.654Z,37.30
2019-04-16T04:06:17.343Z,39.70
2019-04-16T04:08:53.100Z,36.28
2019-04-16T04:11:25.715Z,33.70
2019-04-16T04:13:59.049Z,36.28
2019-04-16T04:16:33.619Z,35.95
2019-04-16T04:19:08.013Z,37.58
2019-04-16T04:21:42.149Z,37.70
2019-04-16T04:24:15.920Z,34.73
2019-04-16T04:26:50.264Z,32.05
2019-04-16T04:29:24.922Z,30.32
2019-04-16T04:32:03.131Z,31.00
2019-04-16T04:34:33.959Z,30.82
2019-04-16T04:37:07.251Z,29.85
2019-04-16T04:39:44.053Z,28.83
2019-04-16T04:42:18.919Z,28.98
2019-04-16T04:44:52.002Z,27.22
2019-04-16T04:47:26.049Z,26.90
2019-04-16T04:50:03.326Z,24.52
2019-04-16T04:52:34.174Z,26.07
2019-04-16T04:55:07.940Z,25.35
2019-04-16T04:57:41.247Z,27.20
2019-04-16T05:00:15.939Z,26.73
2019-04-16T05:02:48.895Z,26.17
2019-04-16T05:05:31.721Z,25.68
2019-04-16T05:08:04.208Z,26.70
2019-04-16T05:10:42.768Z,26.37
2019-04-16T05:13:12.751Z,26.23
2019-04-16T05:15:46.487Z,27.27
2019-04-16T05:18:19.381Z,27.48
2019-04-16T05:20:53.311Z,27.77
2019-04-16T05:23:26.786Z,26.50
2019-04-16T05:26:04.508Z,27.77
2019-04-16T05:28:36.755Z,26.87
2019-04-16T05:31:10.454Z,25.17
2019-04-16T05:33:44.175Z,26.60
2019-04-16T05:36:17.094Z,26.85
2019-04-16T05:38:55.442Z,26.65
2019-04-16T05:41:25.927Z,25.30
2019-04-16T05:44:01.742Z,26.70
2019-04-16T05:46:33.469Z,27.17
2019-04-16T05:49:06.890Z,26.90
2019-04-16T05:51:40.257Z,29.15
2019-04-16T05:54:35.503Z,26.95
2019-04-16T05:57:09.713Z,28.52
2019-04-16T05:59:43.478Z,25.52
2019-04-16T06:02:22.401Z,27.13
2019-04-16T06:04:55.971Z,27.37
2019-04-16T06:07:30.177Z,26.00
2019-04-16T06:10:06.814Z,27.17
2019-04-16T06:13:05.072Z,26.80
2019-04-16T06:15:56.074Z,27.52
2019-04-16T06:18:47.685Z,26.52
2019-04-16T06:21:50.769Z,25.72
2019-04-16T06:24:45.104Z,24.87
2019-04-16T06:27:54.839Z,25.15
2019-04-16T06:30:47.430Z,24.95
2019-04-16T06:33:31.730Z,24.55
2019-04-16T06:36:22.016Z,25.92
2019-04-16T06:39:10.914Z,25.50
2019-04-16T06:42:08.771Z,23.98
2019-04-16T06:44:49.335Z,23.87
2019-04-16T06:47:41.772Z,24.12
2019-04-16T06:50:39.695Z,23.65
2019-04-16T06:53:30.064Z,23.07
2019-04-16T06:56:25.918Z,23.52
2019-04-16T06:59:07.905Z,23.60
2019-04-16T07:02:02.291Z,20.15
2019-04-16T07:04:43.781Z,17.70
2019-04-16T07:07:39.647Z,20.60
2019-04-16T07:10:07.774Z,17.92
2019-04-16T07:12:40.726Z,18.23
2019-04-16T07:15:15.597Z,17.10
2019-04-16T07:17:49.487Z,15.40
2019-04-16T07:20:23.305Z,16.42
2019-04-16T07:22:57.141Z,14.47
2019-04-16T07:25:31.526Z,10.55
2019-04-16T07:28:25.097Z,10.70
2019-04-16T07:31:16.573Z,10.82
2019-04-16T07:34:04.713Z,11.45
2019-04-16T07:37:00.472Z,10.55
2019-04-16T07:39:53.062Z,11.90
2019-04-16T07:42:51.999Z,10.70
2019-04-16T07:45:37.594Z,10.95
2019-04-16T07:48:22.554Z,10.70
2019-04-16T07:51:15.952Z,10.90
2019-04-16T07:54:11.492Z,10.10
2019-04-16T07:56:47.724Z,11.28
2019-04-16T07:59:21.960Z,9.58
2019-04-16T08:01:56.187Z,9.83
2019-04-16T08:04:35.403Z,8.08
2019-04-16T08:07:05.980Z,8.65
2019-04-16T08:09:38.829Z,8.95
2019-04-16T08:12:29.417Z,8.80
2019-04-16T08:14:48.393Z,7.15
2019-04-16T08:17:22.586Z,8.78
2019-04-16T08:19:56.387Z,7.70
2019-04-16T08:22:29.768Z,6.70
2019-04-16T08:25:04.658Z,6.42
2019-04-16T08:27:38.090Z,6.85
2019-04-16T08:30:13.859Z,7.45
2019-04-16T08:32:48.924Z,6.20
2019-04-16T08:35:23.436Z,6.10
2019-04-16T08:37:58.817Z,6.12
2019-04-16T08:40:32.914Z,6.65
2019-04-16T08:43:07.436Z,6.15
2019-04-16T08:45:41.723Z,6.80
2019-04-16T08:48:18.460Z,6.70
2019-04-16T08:50:50.975Z,6.97
2019-04-16T08:53:24.366Z,6.03
2019-04-16T08:55:58.652Z,6.10
2019-04-16T08:58:31.515Z,10.58
2019-04-16T09:01:05.657Z,5.40
2019-04-16T09:03:40.873Z,5.60
2019-04-16T09:06:15.070Z,5.22
2019-04-16T09:09:14.177Z,5.40
2019-04-16T09:11:43.548Z,6.97
2019-04-16T09:14:20.958Z,6.58
2019-04-16T09:17:26.110Z,6.78
2019-04-16T09:20:23.114Z,7.70
2019-04-16T09:22:58.766Z,6.22
2019-04-16T09:25:52.949Z,6.20
2019-04-16T09:29:08.534Z,6.33
2019-04-16T09:31:57.057Z,5.20
2019-04-16T09:34:40.973Z,5.90
2019-04-16T09:37:35.669Z,6.08
2019-04-16T09:40:20.143Z,5.90
2019-04-16T09:42:53.767Z,5.90
2019-04-16T09:45:27.724Z,5.53
2019-04-16T09:48:03.525Z,6.37
2019-04-16T09:50:42.973Z,5.28
2019-04-16T09:53:12.370Z,5.65
2019-04-16T09:55:47.505Z,5.83
2019-04-16T09:58:22.876Z,5.33
2019-04-16T10:01:06.680Z,5.65
2019-04-16T10:03:42.110Z,5.05
2019-04-16T10:06:15.911Z,5.35
2019-04-16T10:08:49.058Z,5.78
2019-04-16T10:11:23.053Z,6.30
2019-04-16T10:13:56.922Z,6.50
2019-04-16T10:16:31.092Z,5.80
2019-04-16T10:19:07.634Z,6.45
2019-04-16T10:21:39.108Z,5.95
2019-04-16T10:24:29.254Z,5.67
2019-04-16T10:27:04.444Z,5.92
2019-04-16T10:29:38.962Z,5.28
2019-04-16T10:32:13.291Z,5.45
2019-04-16T10:34:47.176Z,5.92
2019-04-16T10:37:21.191Z,5.03
2019-04-16T10:40:26.006Z,5.70
2019-04-16T10:43:24.079Z,5.47
2019-04-16T10:46:11.916Z,5.05
2019-04-16T10:48:53.539Z,4.85
2019-04-16T10:51:45.725Z,5.30
2019-04-16T10:54:40.563Z,5.22
2019-04-16T10:57:32.069Z,6.00
2019-04-16T11:00:34.439Z,5.45
2019-04-16T11:03:13.757Z,6.00
2019-04-16T11:06:02.440Z,4.92
2019-04-16T11:08:35.465Z,5.80
2019-04-16T11:11:09.448Z,5.92
2019-04-16T11:13:59.197Z,5.17
2019-04-16T11:16:21.690Z,5.37
2019-04-16T11:18:55.478Z,5.72
2019-04-16T11:21:28.826Z,6.00
2019-04-16T11:24:01.648Z,6.00
2019-04-16T11:26:35.922Z,5.75
2019-04-16T11:29:09.209Z,5.87
2019-04-16T11:31:42.534Z,6.30
2019-04-16T11:34:15.483Z,6.20
2019-04-16T11:36:48.796Z,5.62
2019-04-16T11:39:22.577Z,6.22
2019-04-16T11:41:56.796Z,6.62
2019-04-16T11:44:30.971Z,6.10
2019-04-16T11:47:05.697Z,7.03
2019-04-16T11:49:38.538Z,6.47
2019-04-16T11:52:12.358Z,6.00
2019-04-16T11:54:47.758Z,5.80
2019-04-16T11:57:21.645Z,5.50
2019-04-16T12:00:06.415Z,6.28
2019-04-16T12:02:46.926Z,4.97
2019-04-16T12:05:26.035Z,5.17
2019-04-16T12:08:16.447Z,4.83
2019-04-16T12:11:26.586Z,5.20
2019-04-16T12:14:30.764Z,4.92
2019-04-16T12:17:15.126Z,5.00
2019-04-16T12:19:57.213Z,5.30
2019-04-16T12:22:49.190Z,4.97
2019-04-16T12:25:38.333Z,5.97
2019-04-16T12:28:20.984Z,5.50
2019-04-16T12:31:16.083Z,4.92
2019-04-16T12:34:04.572Z,4.87
2019-04-16T12:36:51.875Z,4.72
2019-04-16T12:39:41.774Z,5.92
2019-04-16T12:42:42.587Z,4.33
2019-04-16T12:45:32.939Z,4.42
2019-04-16T12:48:25.366Z,4.03
2019-04-16T12:51:10.645Z,4.12
2019-04-16T12:54:01.278Z,4.40
2019-04-16T12:57:02.071Z,4.80
2019-04-16T12:59:57.498Z,4.35
2019-04-16T13:02:49.634Z,3.92
2019-04-16T13:05:32.643Z,4.85
2019-04-16T13:08:30.922Z,4.15
2019-04-16T13:11:21.825Z,4.50
2019-04-16T13:14:14.086Z,4.45
2019-04-16T13:17:01.634Z,4.40
2019-04-16T13:20:00.055Z,4.35
2019-04-16T13:22:39.735Z,4.50
2019-04-16T13:25:19.902Z,4.17
2019-04-16T13:27:59.215Z,3.52
2019-04-16T13:30:32.790Z,4.00
2019-04-16T13:33:06.270Z,4.33
2019-04-16T13:35:39.491Z,4.55
2019-04-16T13:38:14.714Z,4.08
2019-04-16T13:40:50.145Z,4.33
2019-04-16T13:43:27.259Z,3.80
2019-04-16T13:46:01.246Z,4.08
2019-04-16T13:48:44.184Z,4.65
2019-04-16T13:51:19.713Z,4.47
2019-04-16T13:54:00.371Z,4.17
2019-04-16T13:56:43.127Z,4.15
2019-04-16T13:59:34.478Z,4.33
2019-04-16T14:02:21.767Z,4.47
2019-04-16T14:05:03.180Z,4.05
2019-04-16T14:07:32.874Z,3.87
2019-04-16T14:10:06.333Z,4.05
2019-04-16T14:12:42.868Z,3.70
2019-04-16T14:15:14.987Z,3.90
2019-04-16T14:17:52.797Z,4.20
2019-04-16T14:20:23.398Z,4.25
2019-04-16T14:22:56.902Z,3.75
2019-04-16T14:25:30.430Z,3.95
2019-04-16T14:28:04.262Z,4.20
2019-04-16T14:30:42.827Z,4.30
2019-04-16T14:33:23.039Z,4.67
2019-04-16T14:35:57.930Z,4.80
2019-04-16T14:38:43.497Z,4.90
2019-04-16T14:41:16.477Z,5.17
2019-04-16T14:43:54.408Z,5.12
2019-04-16T14:46:29.124Z,5.40
2019-04-16T14:49:02.534Z,5.12
2019-04-16T14:51:35.597Z,5.50
2019-04-16T14:54:30.917Z,5.15
2019-04-16T14:57:04.064Z,5.80
2019-04-16T14:59:59.190Z,5.95
2019-04-16T15:02:40.346Z,6.03
2019-04-16T15:05:31.593Z,5.92
2019-04-16T15:08:22.347Z,6.30
2019-04-16T15:11:12.348Z,6.72
2019-04-16T15:14:03.260Z,7.20
2019-04-16T15:16:43.109Z,6.87
2019-04-16T15:19:32.375Z,7.60
2019-04-16T15:22:21.421Z,7.40
2019-04-16T15:25:08.647Z,7.20
2019-04-16T15:27:49.679Z,7.75
2019-04-16T15:30:45.405Z,7.85
2019-04-16T15:33:38.958Z,6.85
2019-04-16T15:36:19.437Z,7.15
2019-04-16T15:39:09.051Z,6.90
2019-04-16T15:41:59.753Z,7.28
2019-04-16T15:44:52.685Z,7.00
2019-04-16T15:47:46.977Z,8.05
2019-04-16T15:50:38.531Z,6.90
2019-04-16T15:53:36.610Z,6.05
2019-04-16T15:56:29.254Z,6.30
2019-04-16T15:59:20.775Z,6.08
2019-04-16T16:02:12.489Z,6.12
2019-04-16T16:05:03.599Z,6.20
2019-04-16T16:07:42.632Z,5.90
2019-04-16T16:10:24.547Z,5.55
2019-04-16T16:12:57.031Z,5.45
2019-04-16T16:15:30.322Z,5.97
2019-04-16T16:18:03.026Z,5.60
2019-04-16T16:20:36.432Z,5.80
2019-04-16T16:23:09.285Z,6.10
2019-04-16T16:25:42.185Z,7.10
2019-04-16T16:28:15.437Z,7.28
2019-04-16T16:30:48.428Z,7.75
2019-04-16T16:33:21.704Z,7.17
2019-04-16T16:35:58.780Z,6.65
2019-04-16T16:38:30.155Z,8.78
2019-04-16T16:41:03.859Z,8.38
2019-04-16T16:43:37.455Z,7.80
2019-04-16T16:46:32.164Z,6.35
2019-04-16T16:49:05.193Z,6.60
2019-04-16T16:51:40.588Z,7.17
2019-04-16T16:54:20.583Z,6.20
2019-04-16T16:57:14.314Z,6.30
2019-04-16T16:59:57.952Z,6.12
2019-04-16T17:02:49.792Z,6.00
2019-04-16T17:05:34.335Z,5.95
2019-04-16T17:08:06.385Z,5.90
2019-04-16T17:10:42.263Z,6.75
2019-04-16T17:13:15.731Z,7.78
2019-04-16T17:15:49.364Z,9.28
2019-04-16T17:18:22.217Z,8.35
2019-04-16T17:20:55.858Z,8.50
2019-04-16T17:23:27.580Z,8.95
2019-04-16T17:26:00.503Z,8.33
2019-04-16T17:28:33.159Z,10.53
2019-04-16T17:31:05.917Z,10.90
2019-04-16T17:33:39.738Z,9.68
2019-04-16T17:36:12.632Z,9.75
2019-04-16T17:38:45.471Z,8.90
2019-04-16T17:41:23.652Z,9.53
2019-04-16T17:44:11.849Z,13.85
2019-04-16T17:46:56.656Z,11.75
2019-04-16T17:49:52.902Z,8.10
2019-04-16T17:52:29.450Z,8.45
2019-04-16T17:55:17.424Z,7.70
2019-04-16T17:57:55.836Z,8.90
2019-04-16T18:00:50.471Z,9.13
2019-04-16T18:03:44.325Z,11.75
2019-04-16T18:06:51.255Z,14.83
2019-04-16T18:09:48.921Z,16.07
2019-04-16T18:12:50.716Z,14.70
2019-04-16T18:15:43.464Z,13.90
2019-04-16T18:18:40.764Z,12.40
2019-04-16T18:21:23.531Z,12.05
2019-04-16T18:24:15.554Z,10.82
2019-04-16T18:27:06.051Z,9.95
2019-04-16T18:30:05.150Z,11.45
2019-04-16T18:32:53.182Z,9.78
2019-04-16T18:35:32.082Z,10.03
2019-04-16T18:38:23.017Z,9.58
2019-04-16T18:41:27.475Z,12.45
2019-04-16T18:44:31.816Z,12.80
2019-04-16T18:47:15.723Z,13.80
2019-04-16T18:49:49.063Z,9.90
2019-04-16T18:52:21.593Z,10.93
2019-04-16T18:54:54.595Z,9.83
2019-04-16T18:57:27.695Z,12.93
2019-04-16T19:00:00.281Z,9.23
2019-04-16T19:02:33.942Z,8.58
2019-04-16T19:05:06.984Z,8.88
2019-04-16T19:07:39.529Z,8.45
2019-04-16T19:10:15.133Z,9.23
2019-04-16T19:12:47.984Z,7.65
2019-04-16T19:15:21.520Z,8.30
2019-04-16T19:17:55.527Z,8.88
2019-04-16T19:20:28.685Z,8.40
2019-04-16T19:23:03.300Z,8.68
2019-04-16T19:25:36.314Z,9.65
2019-04-16T19:28:10.830Z,9.63
2019-04-16T19:30:47.168Z,10.95
2019-04-16T19:33:20.591Z,11.50
2019-04-16T19:35:55.466Z,9.98
2019-04-16T19:38:29.681Z,8.38
2019-04-16T19:41:03.349Z,9.78
2019-04-16T19:43:36.809Z,8.90
2019-04-16T19:46:09.676Z,9.90
2019-04-16T19:48:43.345Z,14.23
2019-04-16T19:51:19.638Z,13.18
2019-04-16T19:53:52.114Z,12.37
2019-04-16T19:56:25.946Z,10.60
2019-04-16T19:59:00.271Z,9.23
2019-04-16T20:01:33.777Z,9.10
2019-04-16T20:04:10.656Z,8.53
2019-04-16T20:06:41.161Z,8.50
2019-04-16T20:09:14.533Z,8.35
2019-04-16T20:11:47.842Z,8.88
2019-04-16T20:14:21.433Z,11.18
2019-04-16T20:16:53.615Z,10.25
2019-04-16T20:19:27.858Z,10.08
2019-04-16T20:22:02.043Z,9.10
2019-04-16T20:24:36.556Z,8.70
2019-04-16T20:27:09.458Z,10.05
2019-04-16T20:29:42.265Z,8.93
2019-04-16T20:32:15.607Z,8.43
2019-04-16T20:34:48.941Z,8.18
2019-04-16T20:37:21.553Z,7.10
2019-04-16T20:39:54.190Z,8.10
2019-04-16T20:42:27.164Z,9.50
2019-04-16T20:45:00.125Z,8.50
2019-04-16T20:47:57.717Z,8.60
2019-04-16T20:50:31.445Z,7.97
2019-04-16T20:53:07.377Z,8.10
2019-04-16T20:55:39.102Z,7.55
2019-04-16T20:58:15.342Z,8.48
2019-04-16T21:00:53.835Z,7.60
2019-04-16T21:03:30.883Z,8.43
2019-04-16T21:06:01.197Z,8.15
2019-04-16T21:08:34.576Z,7.47
2019-04-16T21:11:09.293Z,8.55
2019-04-16T21:13:41.784Z,8.63
2019-04-16T21:16:14.748Z,8.58
2019-04-16T21:18:48.456Z,8.08
2019-04-16T21:21:23.420Z,8.20
2019-04-16T21:23:57.446Z,8.08
2019-04-16T21:26:30.983Z,8.98
2019-04-16T21:29:34.357Z,8.20
2019-04-16T21:32:10.210Z,8.13
2019-04-16T21:34:58.600Z,7.72
2019-04-16T21:37:53.732Z,8.50
2019-04-16T21:40:27.431Z,7.65
2019-04-16T21:43:06.797Z,7.33
2019-04-16T21:45:36.093Z,8.00
2019-04-16T21:48:12.313Z,8.15
2019-04-16T21:50:44.558Z,8.23
2019-04-16T21:53:19.328Z,7.75
2019-04-16T21:55:53.542Z,7.40
2019-04-16T21:58:26.374Z,7.55
2019-04-16T22:01:22.193Z,7.75
2019-04-16T22:04:00.969Z,7.75
2019-04-16T22:06:35.361Z,8.15
2019-04-16T22:09:09.947Z,8.38
2019-04-16T22:11:44.441Z,8.45
2019-04-16T22:14:21.952Z,8.68
2019-04-16T22:16:53.342Z,8.75
2019-04-16T22:19:26.716Z,9.15
2019-04-16T22:22:00.010Z,9.00
2019-04-16T22:24:33.986Z,8.85
2019-04-16T22:27:08.569Z,8.80
2019-04-16T22:29:47.248Z,8.95
2019-04-16T22:32:16.637Z,8.28
2019-04-16T22:34:50.729Z,7.90
2019-04-16T22:37:24.196Z,8.75
2019-04-16T22:40:08.952Z,8.28
2019-04-16T22:43:11.024Z,8.68
2019-04-16T22:45:52.209Z,8.75
2019-04-16T22:48:25.345Z,8.23
2019-04-16T22:50:58.533Z,8.68
2019-04-16T22:53:31.828Z,8.80
2019-04-16T22:56:04.773Z,8.68
2019-04-16T22:58:51.058Z,9.40
2019-04-16T23:01:26.284Z,8.93
2019-04-16T23:03:59.467Z,9.25
2019-04-16T23:06:37.822Z,10.88
2019-04-16T23:09:16.740Z,11.45
2019-04-16T23:11:48.489Z,12.13
2019-04-16T23:14:22.225Z,11.78
2019-04-16T23:16:56.272Z,11.48
2019-04-16T23:19:29.578Z,11.70
2019-04-16T23:22:02.698Z,11.03
2019-04-16T23:24:36.258Z,11.25
2019-04-16T23:27:11.330Z,11.65
2019-04-16T23:29:47.435Z,11.40
2019-04-16T23:32:20.301Z,11.25
2019-04-16T23:34:53.579Z,12.58
2019-04-16T23:37:27.790Z,12.65
2019-04-16T23:40:01.650Z,11.55
2019-04-16T23:42:36.744Z,11.35
2019-04-16T23:45:31.404Z,11.57
2019-04-16T23:48:15.699Z,11.63
2019-04-16T23:51:13.712Z,11.38
2019-04-16T23:53:50.929Z,12.58
2019-04-16T23:56:49.707Z,13.70
2019-04-16T23:59:44.407Z,14.80
